createdAt,value
2022-09-04T00:08:00.140Z,48.2
2022-09-04T00:23:09.501Z,48.3
2022-09-04T00:38:18.406Z,48.4
2022-09-04T00:53:28.259Z,48.5
2022-09-04T01:08:40.899Z,48.7
2022-09-04T01:23:50.335Z,48.9
2022-09-04T01:38:59.452Z,48.9
2022-09-04T01:54:08.892Z,49.1
2022-09-04T02:09:18.311Z,49.3
2022-09-04T02:24:27.725Z,49.5
2022-09-04T02:39:37.337Z,49.6
2022-09-04T02:54:46.352Z,49.8
2022-09-04T03:09:55.516Z,49.8
2022-09-04T03:25:04.697Z,50
2022-09-04T03:40:13.957Z,50
2022-09-04T03:55:23.446Z,50.1
2022-09-04T04:10:32.793Z,50.3
2022-09-04T04:25:42.111Z,50.5
2022-09-04T04:40:51.292Z,51
2022-09-04T04:56:03.297Z,50.9
2022-09-04T05:11:13.178Z,51.6
2022-09-04T05:26:22.371Z,51
2022-09-04T05:41:32.537Z,51
2022-09-04T05:56:42.034Z,50.3
2022-09-04T06:11:51.507Z,50.5
2022-09-04T06:27:00.802Z,50.9
2022-09-04T06:42:10.635Z,50.8
2022-09-04T06:57:20.499Z,50.8
2022-09-04T07:12:32.908Z,50.7
2022-09-04T07:27:42.284Z,51.4
2022-09-04T07:45:40.300Z,53.4
2022-09-04T08:00:51.554Z,52.7
2022-09-04T08:16:01.611Z,52.1
2022-09-04T08:31:11.599Z,51.8
2022-09-04T08:46:28.851Z,51.4
2022-09-04T09:01:39.540Z,51.2
2022-09-04T09:16:49.340Z,51.2
2022-09-04T09:32:04.552Z,50.9
2022-09-04T09:47:14.612Z,51
2022-09-04T10:02:24.880Z,50.5
2022-09-04T10:17:34.965Z,50.3
2022-09-04T10:32:44.444Z,50.1
2022-09-04T10:47:54.018Z,49.9
2022-09-04T11:03:03.825Z,49.7
2022-09-04T11:18:13.504Z,49.5
2022-09-04T11:33:23.699Z,49.3
2022-09-04T11:48:33.656Z,48.9
2022-09-04T12:03:43.522Z,48
2022-09-04T12:18:54.090Z,47.2
2022-09-04T12:34:03.019Z,46
2022-09-04T12:49:12.892Z,45.6
2022-09-04T13:04:28.108Z,45.2
2022-09-04T13:19:37.629Z,45.2
2022-09-04T13:34:47.929Z,45.1
2022-09-04T13:49:57.089Z,45
2022-09-04T14:09:35.139Z,39
2022-09-04T14:24:46.760Z,43
2022-09-04T14:39:55.947Z,43.2
2022-09-04T14:55:05.619Z,43.3
2022-09-04T15:10:15.339Z,43.4
2022-09-04T15:26:00.194Z,43.6
2022-09-04T15:41:18.124Z,44.1
2022-09-04T15:56:26.775Z,44.7
2022-09-04T16:11:35.542Z,45.7
2022-09-04T16:26:44.738Z,45.7
2022-09-04T16:41:53.620Z,46
2022-09-04T16:57:13.941Z,46.4
2022-09-04T17:12:23.317Z,46.6
2022-09-04T17:29:46.196Z,46.9
2022-09-04T17:44:57.560Z,47.2
2022-09-04T18:00:06.409Z,47.4
2022-09-04T18:15:35.349Z,47.6
2022-09-04T18:37:47.981Z,47.9
2022-09-04T18:53:00.412Z,48.3
2022-09-04T19:08:09.868Z,48.6
2022-09-04T19:23:19.657Z,48.8
2022-09-04T19:46:37.121Z,49
2022-09-04T20:02:04.038Z,49.3
2022-09-04T20:17:13.376Z,49.6
2022-09-04T20:32:22.814Z,49.8
2022-09-04T20:53:20.694Z,49.9
2022-09-04T21:08:33.714Z,50
2022-09-04T21:24:09.073Z,48.9
2022-09-04T21:39:19.960Z,50.1
2022-09-04T22:03:01.387Z,49.8
2022-09-04T22:18:13.874Z,50.2
2022-09-04T22:33:26.226Z,50.3
2022-09-04T22:48:35.557Z,50.3
2022-09-04T23:03:45.338Z,50.4
2022-09-04T23:27:01.952Z,50.5
2022-09-04T23:42:12.986Z,50.8
2022-09-04T23:57:27.539Z,51.1
